Time;durP1;ratioP1;P1;durP2;ratioP2;P2;SDS_P1;SDS_P2;PMS_P1;PMS_P2;Temp;Humidity;BMP_temperature;BMP_pressure;BME280_temperature;BME280_humidity;BME280_pressure;Samples;Min_cycle;Max_cycle;Signal;HPM_P1;HPM_P2
2021/05/14 00:00:39;;;;;;;15.38;13.02;;;12.80;96.90;;;;;;6215253;23;20043;-70
2021/05/14 00:03:06;;;;;;;15.07;13.55;;;12.90;96.90;;;;;;6214333;23;20487;-70
2021/05/14 00:05:34;;;;;;;15.77;14.10;;;12.90;96.90;;;;;;6214750;23;20035;-71
2021/05/14 00:08:00;;;;;;;14.77;13.43;;;12.90;96.90;;;;;;6214760;23;20050;-69
2021/05/14 00:10:25;;;;;;;14.00;12.43;;;12.90;96.90;;;;;;6214527;23;20049;-69
2021/05/14 00:12:52;;;;;;;14.70;13.40;;;12.90;96.90;;;;;;6215071;23;20004;-69
2021/05/14 00:15:18;;;;;;;13.48;12.25;;;12.90;96.90;;;;;;6214657;23;20485;-70
2021/05/14 00:17:44;;;;;;;14.85;13.50;;;12.90;96.90;;;;;;6214050;23;20071;-68
2021/05/14 00:20:10;;;;;;;13.85;12.50;;;12.90;96.80;;;;;;6214761;23;20024;-70
2021/05/14 00:22:36;;;;;;;12.93;11.82;;;12.90;97.10;;;;;;6215096;23;20063;-70
2021/05/14 00:25:04;;;;;;;13.98;12.73;;;12.90;96.80;;;;;;6213882;23;20031;-68
2021/05/14 00:27:29;;;;;;;12.88;11.60;;;12.90;96.80;;;;;;6213346;23;19996;-68
2021/05/14 00:29:55;;;;;;;12.48;11.38;;;12.90;96.80;;;;;;6212814;23;20005;-68
2021/05/14 00:32:20;;;;;;;15.27;11.77;;;12.90;96.80;;;;;;6212868;23;20074;-71
2021/05/14 00:34:46;;;;;;;13.15;12.05;;;12.90;96.80;;;;;;6214763;23;20007;-70
2021/05/14 00:37:11;;;;;;;13.50;12.13;;;12.90;96.80;;;;;;6214425;23;19997;-67
2021/05/14 00:39:37;;;;;;;14.05;12.73;;;12.90;96.80;;;;;;6213992;23;20009;-67
2021/05/14 00:42:03;;;;;;;13.48;12.25;;;12.90;96.80;;;;;;6214226;23;20016;-67
2021/05/14 00:44:47;;;;;;;14.45;13.02;;;12.90;96.80;;;;;;6215140;23;20070;-67
2021/05/14 00:47:18;;;;;;;14.75;13.45;;;12.80;96.80;;;;;;6213679;23;20005;-68
2021/05/14 00:49:45;;;;;;;16.27;14.77;;;12.80;96.90;;;;;;6214278;23;19996;-68
2021/05/14 00:52:16;;;;;;;15.23;13.77;;;12.80;96.90;;;;;;6212377;23;20090;-67
2021/05/14 00:54:43;;;;;;;16.50;14.35;;;12.90;96.90;;;;;;6214461;23;20075;-70
2021/05/14 00:57:10;;;;;;;16.13;14.57;;;12.80;96.90;;;;;;6214642;23;20005;-69
2021/05/14 00:59:36;;;;;;;15.98;14.50;;;12.90;97.00;;;;;;6213526;23;20023;-69
2021/05/14 01:02:03;;;;;;;16.48;14.77;;;12.90;97.00;;;;;;6214313;23;20414;-67
2021/05/14 01:04:29;;;;;;;18.00;16.35;;;12.90;97.10;;;;;;6214683;23;20430;-69
2021/05/14 01:06:54;;;;;;;17.25;15.65;;;13.00;97.10;;;;;;6211693;23;20109;-69
2021/05/14 01:09:20;;;;;;;17.23;15.00;;;13.00;97.10;;;;;;6214492;23;20334;-71
2021/05/14 01:11:46;;;;;;;18.88;17.13;;;13.10;97.10;;;;;;6214336;23;20067;-71
2021/05/14 01:14:11;;;;;;;20.83;18.92;;;13.10;97.10;;;;;;6213503;23;19997;-67
2021/05/14 01:16:37;;;;;;;20.17;18.27;;;13.10;97.10;;;;;;6214473;23;20422;-72
2021/05/14 01:19:03;;;;;;;20.83;18.70;;;13.10;97.10;;;;;;6212485;23;20001;-70
2021/05/14 01:21:29;;;;;;;22.35;20.20;;;13.10;97.00;;;;;;6213783;23;20310;-71
2021/05/14 01:23:55;;;;;;;22.40;20.30;;;13.00;97.00;;;;;;6212205;23;20032;-68
2021/05/14 01:26:23;;;;;;;22.55;20.38;;;13.00;97.00;;;;;;6214535;23;20330;-71
2021/05/14 01:28:49;;;;;;;23.70;20.63;;;13.00;97.10;;;;;;6213169;23;20075;-69
2021/05/14 01:31:15;;;;;;;22.55;20.38;;;13.00;97.20;;;;;;6214195;23;20090;-70
2021/05/14 01:33:41;;;;;;;24.08;21.67;;;13.00;97.20;;;;;;6214197;23;20007;-70
2021/05/14 01:36:08;;;;;;;25.08;21.85;;;13.00;97.20;;;;;;6213544;23;20008;-72
2021/05/14 01:38:34;;;;;;;24.02;21.83;;;12.90;97.20;;;;;;6213905;23;20055;-73
2021/05/14 01:41:00;;;;;;;25.52;23.13;;;12.90;97.10;;;;;;6212179;23;20017;-71
2021/05/14 01:43:26;;;;;;;24.95;22.48;;;12.90;97.10;;;;;;6213622;23;19997;-72
2021/05/14 01:45:52;;;;;;;24.90;22.70;;;12.80;97.20;;;;;;6214218;23;20012;-68
2021/05/14 01:48:18;;;;;;;26.15;23.65;;;12.80;97.20;;;;;;6214015;23;20000;-65
2021/05/14 01:50:43;;;;;;;27.75;25.00;;;12.80;97.20;;;;;;6213021;23;20291;-65
2021/05/14 01:53:09;;;;;;;26.88;24.38;;;12.80;97.30;;;;;;6214057;23;20425;-66
2021/05/14 01:55:37;;;;;;;28.45;25.55;;;12.80;97.30;;;;;;6213017;23;20024;-66
2021/05/14 01:58:03;;;;;;;28.98;26.38;;;12.70;97.20;;;;;;6214058;23;20032;-67
2021/05/14 02:00:28;;;;;;;27.95;25.33;;;12.70;97.20;;;;;;6214271;23;20016;-66
2021/05/14 02:02:54;;;;;;;30.85;27.65;;;12.70;97.20;;;;;;6213064;23;20329;-68
2021/05/14 02:05:19;;;;;;;29.70;26.90;;;12.60;97.30;;;;;;6213492;23;19996;-67
2021/05/14 02:07:45;;;;;;;29.13;26.23;;;12.60;97.30;;;;;;6213630;23;20005;-67
2021/05/14 02:10:12;;;;;;;29.85;27.10;;;12.60;97.30;;;;;;6213443;23;20016;-68
2021/05/14 02:12:37;;;;;;;29.98;26.52;;;12.60;97.30;;;;;;6213604;23;20483;-71
2021/05/14 02:15:05;;;;;;;33.42;30.23;;;12.70;97.30;;;;;;6213955;23;20005;-70
2021/05/14 02:17:30;;;;;;;28.33;25.73;;;12.70;97.30;;;;;;6213125;23;20007;-67
2021/05/14 02:19:56;;;;;;;31.13;28.13;;;12.70;97.20;;;;;;6213778;23;20004;-70
2021/05/14 02:22:22;;;;;;;29.73;26.83;;;12.60;97.20;;;;;;6213961;23;20000;-67
2021/05/14 02:24:49;;;;;;;30.10;27.20;;;12.60;97.30;;;;;;6212736;23;20001;-67
2021/05/14 02:27:16;;;;;;;30.38;27.30;;;12.50;97.20;;;;;;6214025;23;20011;-67
2021/05/14 02:29:41;;;;;;;30.13;27.33;;;12.50;97.30;;;;;;6213554;23;20031;-67
2021/05/14 02:32:07;;;;;;;29.58;26.58;;;12.60;97.30;;;;;;6213097;23;20004;-67
2021/05/14 02:34:32;;;;;;;31.30;28.30;;;12.60;97.30;;;;;;6213554;23;20295;-69
2021/05/14 02:36:58;;;;;;;30.85;27.70;;;12.50;97.50;;;;;;6212151;23;20135;-67
2021/05/14 02:39:24;;;;;;;32.35;29.15;;;12.50;97.30;;;;;;6212937;23;20076;-69
2021/05/14 02:41:50;;;;;;;29.38;26.67;;;12.50;97.30;;;;;;6213186;23;20012;-69
2021/05/14 02:44:15;;;;;;;29.60;26.75;;;12.50;97.30;;;;;;6213623;23;20001;-68
2021/05/14 02:46:42;;;;;;;31.63;28.73;;;12.50;97.30;;;;;;6211244;23;20000;-68
2021/05/14 02:49:09;;;;;;;34.20;30.83;;;12.50;97.70;;;;;;6213549;23;20008;-68
2021/05/14 02:51:35;;;;;;;32.70;29.52;;;12.60;97.40;;;;;;6211941;23;20009;-69
2021/05/14 02:54:01;;;;;;;34.63;31.23;;;12.60;97.30;;;;;;6212568;23;20060;-70
2021/05/14 02:56:31;;;;;;;33.03;29.73;;;12.60;97.30;;;;;;6212100;23;20449;-67
2021/05/14 02:58:57;;;;;;;33.80;30.45;;;12.60;97.30;;;;;;6211197;23;20031;-67
2021/05/14 03:01:23;;;;;;;34.80;31.35;;;12.60;97.30;;;;;;6213455;23;20425;-67
2021/05/14 03:03:49;;;;;;;33.63;30.35;;;12.50;97.30;;;;;;6213237;23;20075;-66
2021/05/14 03:06:14;;;;;;;32.60;29.40;;;12.50;97.40;;;;;;6210584;23;20426;-67
2021/05/14 03:08:40;;;;;;;32.47;29.27;;;12.60;97.40;;;;;;6213259;23;20055;-67
2021/05/14 03:11:06;;;;;;;34.17;30.88;;;12.60;97.40;;;;;;6213428;23;20012;-68
2021/05/14 03:13:32;;;;;;;33.03;29.73;;;12.60;97.40;;;;;;6212650;23;20012;-66
2021/05/14 03:15:57;;;;;;;34.88;31.33;;;12.60;97.30;;;;;;6211765;23;20004;-66
2021/05/14 03:18:23;;;;;;;34.15;30.70;;;12.50;97.30;;;;;;6213396;23;20001;-68
2021/05/14 03:20:48;;;;;;;33.30;29.80;;;12.50;97.40;;;;;;6212424;23;20084;-68
2021/05/14 03:23:14;;;;;;;31.88;28.67;;;12.50;97.40;;;;;;6213258;23;20008;-66
2021/05/14 03:25:40;;;;;;;31.48;28.35;;;12.50;97.40;;;;;;6215352;23;20009;-66
2021/05/14 03:28:05;;;;;;;30.33;27.10;;;12.40;97.50;;;;;;6214341;23;20001;-66
2021/05/14 03:30:32;;;;;;;30.33;27.33;;;12.40;97.50;;;;;;6215382;23;20148;-66
2021/05/14 03:32:58;;;;;;;30.02;27.02;;;12.40;97.40;;;;;;6215439;23;20079;-66
2021/05/14 03:35:23;;;;;;;30.92;27.75;;;12.40;97.40;;;;;;6214883;23;20420;-66
2021/05/14 03:37:49;;;;;;;29.95;27.13;;;12.40;97.40;;;;;;6213577;23;20004;-67
2021/05/14 03:40:20;;;;;;;28.88;26.08;;;12.40;97.50;;;;;;6215035;23;20040;-66
2021/05/14 03:42:45;;;;;;;29.00;25.50;;;12.40;97.40;;;;;;6214019;23;20012;-67
2021/05/14 03:45:13;;;;;;;27.00;24.20;;;12.40;97.50;;;;;;6215108;23;20009;-67
2021/05/14 03:47:39;;;;;;;28.52;25.55;;;12.40;97.50;;;;;;6215058;23;20390;-67
2021/05/14 03:50:05;;;;;;;29.42;26.52;;;12.40;97.50;;;;;;6214042;23;20040;-66
2021/05/14 03:52:33;;;;;;;34.20;25.95;;;12.40;97.50;;;;;;6214618;23;20492;-71
2021/05/14 03:54:59;;;;;;;28.60;25.90;;;12.50;97.50;;;;;;6213445;23;20007;-70
2021/05/14 03:57:25;;;;;;;28.13;25.48;;;12.50;97.50;;;;;;6212870;23;20036;-71
2021/05/14 03:59:50;;;;;;;30.35;26.67;;;12.60;97.50;;;;;;6215007;23;20031;-71
2021/05/14 04:02:16;;;;;;;30.10;26.95;;;12.60;97.40;;;;;;6214060;23;20013;-72
2021/05/14 04:04:41;;;;;;;30.17;27.10;;;12.70;97.50;;;;;;6214829;23;20106;-71
2021/05/14 04:07:07;;;;;;;30.92;27.88;;;12.70;97.40;;;;;;6214993;23;20000;-70
2021/05/14 04:09:35;;;;;;;31.05;27.95;;;12.80;97.40;;;;;;6214035;23;20359;-71
2021/05/14 04:12:10;;;;;;;29.10;26.20;;;12.80;97.30;;;;;;6214928;23;20034;-71
2021/05/14 04:14:36;;;;;;;27.20;24.50;;;12.80;97.30;;;;;;6213409;23;20402;-67
2021/05/14 04:17:03;;;;;;;25.48;22.77;;;12.70;97.20;;;;;;6212402;23;20004;-71
2021/05/14 04:19:29;;;;;;;27.42;24.63;;;12.80;97.30;;;;;;6215008;23;20418;-71
2021/05/14 04:21:57;;;;;;;30.83;25.90;;;12.80;97.30;;;;;;6215147;23;20088;-71
2021/05/14 04:24:24;;;;;;;28.77;25.85;;;12.80;97.30;;;;;;6214126;23;20000;-71
2021/05/14 04:26:51;;;;;;;29.52;26.63;;;12.80;97.30;;;;;;6214712;23;20001;-68
2021/05/14 04:29:17;;;;;;;28.80;25.77;;;12.90;97.30;;;;;;6212887;23;20001;-66
2021/05/14 04:31:44;;;;;;;24.60;22.15;;;12.90;97.30;;;;;;6213772;23;20004;-67
2021/05/14 04:34:11;;;;;;;26.67;24.02;;;13.00;97.30;;;;;;6214521;23;20011;-66
2021/05/14 04:36:41;;;;;;;24.63;22.05;;;13.00;97.20;;;;;;6214637;23;20389;-67
2021/05/14 04:39:07;;;;;;;24.50;22.00;;;13.00;97.10;;;;;;6213716;23;20004;-66
2021/05/14 04:41:33;;;;;;;24.80;22.40;;;13.00;97.00;;;;;;6214063;23;20096;-67
2021/05/14 04:43:59;;;;;;;23.42;21.15;;;13.00;96.90;;;;;;6214740;23;20024;-68
2021/05/14 04:46:25;;;;;;;23.80;21.23;;;12.90;96.90;;;;;;6214124;23;20013;-67
2021/05/14 04:48:51;;;;;;;25.50;22.85;;;12.90;96.80;;;;;;6214454;23;20011;-67
2021/05/14 04:51:17;;;;;;;25.42;23.02;;;13.00;97.00;;;;;;6214287;23;20026;-67
2021/05/14 04:53:45;;;;;;;26.42;23.73;;;13.00;97.00;;;;;;6214393;23;20357;-67
2021/05/14 04:56:12;;;;;;;22.48;20.25;;;13.00;96.90;;;;;;6214695;23;20393;-67
2021/05/14 04:58:37;;;;;;;24.58;22.05;;;13.00;96.60;;;;;;6213954;23;20349;-66
2021/05/14 05:01:03;;;;;;;23.65;21.35;;;13.00;96.40;;;;;;6212951;23;20009;-66
2021/05/14 05:03:29;;;;;;;23.73;21.33;;;13.00;96.50;;;;;;6214589;23;20001;-67
2021/05/14 05:05:55;;;;;;;23.15;20.75;;;13.00;96.60;;;;;;6212259;23;20000;-66
2021/05/14 05:08:21;;;;;;;24.92;22.42;;;13.00;96.50;;;;;;6214779;23;20005;-67
2021/05/14 05:10:46;;;;;;;24.23;21.88;;;13.00;96.30;;;;;;6214495;23;20005;-66
2021/05/14 05:13:12;;;;;;;23.90;21.40;;;13.00;96.20;;;;;;6213822;23;20008;-70
2021/05/14 05:15:38;;;;;;;23.48;21.17;;;13.00;96.10;;;;;;6214736;23;20363;-67
2021/05/14 05:18:03;;;;;;;24.27;21.77;;;13.10;96.00;;;;;;6214106;23;20004;-66
2021/05/14 05:20:29;;;;;;;25.50;22.80;;;13.10;96.00;;;;;;6213790;23;20009;-67
2021/05/14 05:22:55;;;;;;;24.73;22.27;;;13.10;96.00;;;;;;6214029;23;20046;-67
2021/05/14 05:25:21;;;;;;;25.45;22.92;;;13.00;95.80;;;;;;6214084;23;20429;-68
2021/05/14 05:27:46;;;;;;;26.40;23.73;;;13.00;95.80;;;;;;6213445;23;20041;-67
2021/05/14 05:30:13;;;;;;;23.88;21.48;;;13.00;95.90;;;;;;6214046;23;20000;-67
2021/05/14 05:32:38;;;;;;;24.88;22.23;;;13.00;95.80;;;;;;6214555;23;20000;-67
2021/05/14 05:35:04;;;;;;;25.35;22.65;;;13.00;95.80;;;;;;6213284;23;20031;-67
2021/05/14 05:37:30;;;;;;;25.10;22.40;;;13.10;95.80;;;;;;6214431;23;20459;-67
2021/05/14 05:39:55;;;;;;;24.02;21.42;;;13.00;95.70;;;;;;6214090;23;19996;-67
2021/05/14 05:42:21;;;;;;;21.08;18.98;;;13.00;95.60;;;;;;6213263;23;20016;-67
2021/05/14 05:44:46;;;;;;;22.38;20.23;;;13.00;95.60;;;;;;6214072;23;20417;-67
2021/05/14 05:47:12;;;;;;;21.92;19.83;;;12.90;95.50;;;;;;6214217;23;20414;-68
2021/05/14 05:49:38;;;;;;;20.10;18.10;;;12.90;95.70;;;;;;6213116;23;20007;-68
2021/05/14 05:52:03;;;;;;;21.20;19.08;;;12.90;95.70;;;;;;6213917;23;20005;-71
2021/05/14 05:54:29;;;;;;;23.05;20.65;;;12.90;95.50;;;;;;6214425;23;20043;-71
2021/05/14 05:56:57;;;;;;;21.35;19.15;;;12.90;95.50;;;;;;6211643;23;20013;-68
2021/05/14 05:59:23;;;;;;;23.05;20.60;;;13.00;95.40;;;;;;6213906;23;20012;-72
2021/05/14 06:01:49;;;;;;;19.08;17.20;;;13.00;95.50;;;;;;6213039;23;20092;-71
2021/05/14 06:04:15;;;;;;;20.50;18.48;;;13.00;95.40;;;;;;6213916;23;20011;-69
2021/05/14 06:06:41;;;;;;;22.23;19.75;;;13.10;95.20;;;;;;6213677;23;20028;-68
2021/05/14 06:09:06;;;;;;;22.02;19.75;;;13.00;95.10;;;;;;6212971;23;20418;-70
2021/05/14 06:11:32;;;;;;;22.88;19.30;;;13.00;95.10;;;;;;6213745;23;20001;-70
2021/05/14 06:13:58;;;;;;;21.73;19.60;;;13.00;95.00;;;;;;6213722;23;20023;-70
2021/05/14 06:16:23;;;;;;;20.88;18.75;;;13.00;95.00;;;;;;6213615;23;20083;-71
2021/05/14 06:18:55;;;;;;;24.08;19.77;;;13.00;94.90;;;;;;6213728;23;20063;-71
2021/05/14 06:21:21;;;;;;;;;;;13.00;94.90;;;;;;6212807;23;20021;-71
2021/05/14 06:23:47;;;;;;;23.02;19.80;;;13.00;94.70;;;;;;6212679;23;20377;-69
2021/05/14 06:26:14;;;;;;;22.83;18.80;;;13.00;94.70;;;;;;6213554;23;20090;-70
2021/05/14 06:28:39;;;;;;;23.42;19.83;;;13.00;94.70;;;;;;6213486;23;20079;-67
2021/05/14 06:31:05;;;;;;;22.77;19.42;;;13.10;94.80;;;;;;6212727;23;20508;-71
2021/05/14 06:33:30;;;;;;;22.70;20.40;;;13.00;94.60;;;;;;6212069;23;20013;-69
2021/05/14 06:36:00;;;;;;;22.70;20.30;;;13.00;94.70;;;;;;6213653;23;20007;-68
2021/05/14 06:38:25;;;;;;;22.73;20.42;;;13.10;94.80;;;;;;6212930;23;20004;-68
2021/05/14 06:40:52;;;;;;;23.58;21.08;;;13.10;94.80;;;;;;6211073;23;20020;-71
2021/05/14 06:43:19;;;;;;;23.10;19.67;;;13.00;94.80;;;;;;6213173;23;20008;-71
2021/05/14 06:45:44;;;;;;;22.15;18.98;;;13.10;94.80;;;;;;6212326;23;20005;-68
2021/05/14 06:48:14;;;;;;;23.13;20.60;;;13.10;94.60;;;;;;6213336;23;20068;-68
2021/05/14 06:50:40;;;;;;;24.00;21.15;;;13.10;94.70;;;;;;6213552;23;20067;-70
2021/05/14 06:53:06;;;;;;;21.55;19.42;;;13.10;94.70;;;;;;6212945;23;20055;-69
2021/05/14 06:55:33;;;;;;;23.20;19.17;;;13.10;94.60;;;;;;6213540;23;20008;-69
2021/05/14 06:57:59;;;;;;;22.13;18.65;;;13.10;94.70;;;;;;6212133;23;20088;-71
2021/05/14 07:00:24;;;;;;;21.23;19.02;;;13.20;94.80;;;;;;6213523;23;20055;-71
2021/05/14 07:02:50;;;;;;;21.38;19.15;;;13.20;94.60;;;;;;6213344;23;20047;-69
2021/05/14 07:05:16;;;;;;;23.13;19.48;;;13.30;94.60;;;;;;6212506;23;20032;-72
2021/05/14 07:07:42;;;;;;;22.25;19.15;;;13.20;94.40;;;;;;6213288;23;20076;-71
2021/05/14 07:10:09;;;;;;;20.95;18.75;;;13.20;94.40;;;;;;6213473;23;20350;-68
2021/05/14 07:12:35;;;;;;;20.10;18.10;;;13.30;94.20;;;;;;6212756;23;20028;-67
2021/05/14 07:15:05;;;;;;;21.17;18.85;;;13.40;94.20;;;;;;6213333;23;20378;-69
2021/05/14 07:17:31;;;;;;;20.85;18.83;;;13.40;94.10;;;;;;6211716;23;20009;-68
2021/05/14 07:19:57;;;;;;;19.42;17.42;;;13.60;94.00;;;;;;6212443;23;20422;-71
2021/05/14 07:22:22;;;;;;;19.63;17.73;;;13.70;93.60;;;;;;6211794;23;20100;-68
2021/05/14 07:24:48;;;;;;;20.15;18.25;;;13.70;92.90;;;;;;6213049;23;19997;-68
2021/05/14 07:27:13;;;;;;;18.98;16.95;;;13.70;92.80;;;;;;6212424;23;20326;-69
2021/05/14 07:29:40;;;;;;;20.25;18.00;;;13.70;92.90;;;;;;6213142;23;20061;-69
2021/05/14 07:32:06;;;;;;;20.45;18.38;;;13.80;92.60;;;;;;6213462;23;20001;-67
2021/05/14 07:34:32;;;;;;;24.15;20.33;;;13.90;92.70;;;;;;6210975;23;20004;-68
2021/05/14 07:36:57;;;;;;;20.15;18.27;;;14.00;92.90;;;;;;6213442;23;20488;-69
2021/05/14 07:39:23;;;;;;;20.35;18.15;;;14.10;92.40;;;;;;6213227;23;20044;-68
2021/05/14 07:41:48;;;;;;;22.77;20.48;;;14.10;92.20;;;;;;6210453;23;20012;-68
2021/05/14 07:44:14;;;;;;;19.95;18.05;;;14.10;92.30;;;;;;6211916;23;20109;-69
2021/05/14 07:46:40;;;;;;;21.05;18.88;;;14.10;92.00;;;;;;6213241;23;20414;-70
2021/05/14 07:49:05;;;;;;;20.60;18.67;;;14.10;92.20;;;;;;6212000;23;20001;-71
2021/05/14 07:51:31;;;;;;;22.58;20.38;;;14.10;92.10;;;;;;6212836;23;20024;-71
2021/05/14 07:53:57;;;;;;;21.23;19.30;;;14.10;92.20;;;;;;6213035;23;20059;-70
2021/05/14 07:56:23;;;;;;;22.23;20.02;;;14.00;92.20;;;;;;6210585;23;20005;-69
2021/05/14 07:58:48;;;;;;;21.85;19.75;;;13.90;91.80;;;;;;6212923;23;20472;-68
2021/05/14 08:01:14;;;;;;;21.77;19.75;;;13.90;92.50;;;;;;6210614;23;20669;-69
2021/05/14 08:03:40;;;;;;;21.05;18.95;;;14.10;92.40;;;;;;6211349;23;20000;-73
2021/05/14 08:06:05;;;;;;;20.77;18.70;;;14.10;92.00;;;;;;6212831;23;20471;-69
2021/05/14 08:08:35;;;;;;;25.05;22.05;;;14.10;92.10;;;;;;6212525;23;20016;-67
2021/05/14 08:11:01;;;;;;;22.75;20.40;;;14.10;92.10;;;;;;6214417;23;20085;-72
2021/05/14 08:13:26;;;;;;;21.48;19.33;;;14.10;91.80;;;;;;6215072;23;20021;-72
2021/05/14 08:15:52;;;;;;;20.50;18.23;;;14.10;91.70;;;;;;6214124;23;20054;-72
2021/05/14 08:18:18;;;;;;;21.13;19.10;;;14.10;91.90;;;;;;6214849;23;20821;-68
2021/05/14 08:20:45;;;;;;;22.73;19.85;;;14.10;91.90;;;;;;6215158;23;20084;-70
2021/05/14 08:23:11;;;;;;;22.35;20.13;;;14.20;92.30;;;;;;6214422;23;20004;-69
2021/05/14 08:25:37;;;;;;;25.63;22.02;;;14.40;92.10;;;;;;6214987;23;20008;-73
2021/05/14 08:28:04;;;;;;;27.25;20.92;;;14.50;91.90;;;;;;6214320;23;20067;-70
2021/05/14 08:30:30;;;;;;;25.65;23.05;;;14.60;91.50;;;;;;6212656;23;20001;-71
2021/05/14 08:32:55;;;;;;;22.05;19.73;;;14.70;91.40;;;;;;6214661;23;20072;-68
2021/05/14 08:35:21;;;;;;;22.45;20.05;;;14.70;90.90;;;;;;6214929;23;20032;-68
2021/05/14 08:37:48;;;;;;;22.13;18.83;;;14.70;91.10;;;;;;6214285;23;20075;-73
2021/05/14 08:40:14;;;;;;;22.75;20.30;;;14.80;91.10;;;;;;6214549;23;20000;-71
2021/05/14 08:42:42;;;;;;;22.83;20.52;;;14.80;90.60;;;;;;6214463;23;20012;-68
2021/05/14 08:45:09;;;;;;;22.63;20.38;;;14.80;90.80;;;;;;6214075;23;20322;-71
2021/05/14 08:47:39;;;;;;;23.40;20.98;;;14.80;90.70;;;;;;6214473;23;20008;-72
2021/05/14 08:50:06;;;;;;;25.58;22.77;;;14.80;90.50;;;;;;6212512;23;20493;-73
2021/05/14 08:52:35;;;;;;;24.98;22.33;;;14.60;90.40;;;;;;6213573;23;20031;-70
2021/05/14 08:55:02;;;;;;;23.42;20.83;;;14.60;90.30;;;;;;6214470;23;20426;-72
2021/05/14 08:57:28;;;;;;;23.60;21.10;;;14.50;90.00;;;;;;6214178;23;20047;-71
2021/05/14 08:59:54;;;;;;;23.90;21.13;;;14.40;90.20;;;;;;6214448;23;19997;-73
2021/05/14 09:02:19;;;;;;;25.52;22.92;;;14.50;90.10;;;;;;6214466;23;20036;-73
2021/05/14 09:04:47;;;;;;;26.13;21.75;;;14.60;89.70;;;;;;6212027;23;20007;-71
2021/05/14 09:07:14;;;;;;;24.20;21.55;;;14.60;89.20;;;;;;6214329;23;20107;-70
2021/05/14 09:09:40;;;;;;;23.48;20.95;;;14.60;90.10;;;;;;6214443;23;20480;-72
2021/05/14 09:12:06;;;;;;;27.45;21.50;;;14.70;90.40;;;;;;6214275;23;20001;-68
2021/05/14 09:14:44;;;;;;;25.10;22.55;;;14.90;90.10;;;;;;6214029;23;20004;-75
2021/05/14 09:17:14;;;;;;;23.33;20.92;;;15.00;89.30;;;;;;6214241;23;20051;-74
2021/05/14 09:19:47;;;;;;;27.02;24.25;;;15.00;89.00;;;;;;6213400;23;20076;-75
2021/05/14 09:22:13;;;;;;;25.77;23.17;;;15.10;87.90;;;;;;6213493;23;20015;-71
2021/05/14 09:24:41;;;;;;;23.88;21.48;;;15.10;88.20;;;;;;6214155;23;20004;-76
2021/05/14 09:27:31;;;;;;;24.95;22.38;;;15.10;87.60;;;;;;6211997;23;20444;-70
2021/05/14 09:29:58;;;;;;;23.23;20.83;;;15.00;88.10;;;;;;6214333;23;20433;-76
2021/05/14 09:32:35;;;;;;;25.25;21.85;;;14.90;87.70;;;;;;6214437;23;20001;-73
2021/05/14 09:35:06;;;;;;;24.83;22.23;;;14.90;88.60;;;;;;6213135;23;20488;-70
2021/05/14 09:37:31;;;;;;;23.37;20.87;;;14.90;88.20;;;;;;6213771;23;20008;-74
2021/05/14 09:40:18;;;;;;;23.73;21.23;;;14.90;88.70;;;;;;6213391;23;20032;-66
2021/05/14 09:42:46;;;;;;;23.80;21.20;;;15.00;88.90;;;;;;6213586;23;20434;-68
2021/05/14 09:45:22;;;;;;;24.55;21.95;;;15.00;88.10;;;;;;6214231;23;20028;-69
2021/05/14 09:48:02;;;;;;;26.00;21.48;;;15.00;86.60;;;;;;6211194;23;20035;-68
2021/05/14 09:50:29;;;;;;;24.02;21.50;;;14.90;86.60;;;;;;6214474;23;20004;-67
2021/05/14 09:53:06;;;;;;;25.00;19.88;;;14.80;86.50;;;;;;6212493;23;20004;-68
2021/05/14 09:55:35;;;;;;;24.50;20.73;;;14.90;87.60;;;;;;6212856;23;20019;-68
2021/05/14 09:58:08;;;;;;;24.02;21.60;;;15.00;87.90;;;;;;6213572;23;20001;-72
2021/05/14 10:00:33;;;;;;;23.30;20.77;;;15.40;86.70;;;;;;6213230;23;20015;-68
2021/05/14 10:02:59;;;;;;;22.67;20.30;;;15.60;84.70;;;;;;6213089;23;20001;-69
2021/05/14 10:05:26;;;;;;;22.35;19.98;;;15.60;83.60;;;;;;6212011;23;20008;-70
2021/05/14 10:07:52;;;;;;;21.88;19.25;;;15.70;83.00;;;;;;6212749;23;20035;-68
2021/05/14 10:10:19;;;;;;;21.83;19.60;;;15.80;83.70;;;;;;6213440;23;20000;-66
2021/05/14 10:12:49;;;;;;;23.45;20.60;;;15.90;83.60;;;;;;6213641;23;20004;-67
2021/05/14 10:15:14;;;;;;;21.33;19.02;;;16.00;83.70;;;;;;6211042;23;20000;-67
2021/05/14 10:17:46;;;;;;;21.17;18.00;;;15.90;83.70;;;;;;6213435;23;20058;-67
2021/05/14 10:20:15;;;;;;;19.63;17.70;;;15.90;80.30;;;;;;6213811;23;19997;-67
2021/05/14 10:22:41;;;;;;;20.02;17.83;;;15.90;82.00;;;;;;6209663;23;20008;-66
2021/05/14 10:25:08;;;;;;;17.70;15.90;;;16.00;81.90;;;;;;6209328;23;20035;-68
2021/05/14 10:27:39;;;;;;;16.48;14.65;;;16.20;80.50;;;;;;6209384;23;20008;-67
2021/05/14 10:30:05;;;;;;;16.35;14.65;;;16.30;78.30;;;;;;6208714;23;20055;-67
2021/05/14 10:32:42;;;;;;;15.52;13.95;;;16.40;79.00;;;;;;6209378;23;20008;-72
2021/05/14 10:35:09;;;;;;;17.55;14.52;;;16.50;78.10;;;;;;6207340;23;20114;-69
2021/05/14 10:37:57;;;;;;;15.80;14.02;;;16.50;78.60;;;;;;6209869;23;20001;-68
2021/05/14 10:43:04;;;;;;;;;;;16.50;78.20;;;;;;6212656;23;20352;-67
2021/05/14 10:45:43;;;;;;;14.95;13.55;;;16.50;79.10;;;;;;6213362;23;19927;-72
2021/05/14 10:48:22;;;;;;;14.38;12.73;;;16.60;79.20;;;;;;6208504;23;20070;-68
2021/05/14 10:51:01;;;;;;;14.00;12.57;;;16.50;78.10;;;;;;6212139;23;20000;-70
2021/05/14 10:53:35;;;;;;;15.63;13.98;;;16.40;77.60;;;;;;6213402;23;20004;-71
2021/05/14 10:56:09;;;;;;;14.20;12.85;;;16.30;76.30;;;;;;6213032;23;20004;-70
2021/05/14 10:58:42;;;;;;;15.27;12.52;;;16.10;76.30;;;;;;6209911;23;20005;-69
2021/05/14 11:01:26;;;;;;;12.73;11.38;;;16.00;76.60;;;;;;6212436;23;20013;-68
2021/05/14 11:03:51;;;;;;;15.48;12.32;;;16.00;76.90;;;;;;6211641;23;20307;-68
2021/05/14 11:06:19;;;;;;;14.35;13.05;;;16.00;76.80;;;;;;6212479;23;20493;-70
2021/05/14 11:09:17;;;;;;;12.80;11.43;;;16.00;77.60;;;;;;6212591;23;20414;-68
2021/05/14 11:12:02;;;;;;;13.23;11.32;;;16.20;77.20;;;;;;6211932;23;20321;-70
2021/05/14 11:14:42;;;;;;;12.13;10.73;;;16.20;75.00;;;;;;6212875;23;20005;-67
2021/05/14 11:17:09;;;;;;;13.27;11.80;;;16.10;74.80;;;;;;6211547;23;20028;-69
2021/05/14 11:19:43;;;;;;;12.85;11.55;;;16.10;75.70;;;;;;6212010;23;20009;-68
2021/05/14 11:22:15;;;;;;;13.15;11.85;;;16.10;76.20;;;;;;6211450;23;20099;-68
2021/05/14 11:24:45;;;;;;;11.95;10.63;;;16.00;76.30;;;;;;6211215;23;20000;-70
2021/05/14 11:27:18;;;;;;;11.98;10.02;;;15.90;75.40;;;;;;6211948;23;20032;-69
2021/05/14 11:29:56;;;;;;;11.00;9.90;;;15.90;75.90;;;;;;6210950;23;20075;-71
2021/05/14 11:32:44;;;;;;;11.00;9.85;;;15.90;76.10;;;;;;6212396;23;20015;-70
2021/05/14 11:35:12;;;;;;;11.20;9.05;;;16.00;76.50;;;;;;6212960;23;20325;-71
2021/05/14 11:37:52;;;;;;;9.35;8.18;;;16.10;76.20;;;;;;6211535;23;20011;-68
2021/05/14 11:40:29;;;;;;;10.38;8.70;;;16.20;75.00;;;;;;6212080;23;20012;-69
2021/05/14 11:42:57;;;;;;;12.05;9.65;;;16.30;74.10;;;;;;6212761;23;20040;-69
2021/05/14 11:45:35;;;;;;;13.80;10.25;;;16.30;76.10;;;;;;6213794;23;19997;-67
2021/05/14 11:48:11;;;;;;;11.52;9.38;;;16.40;75.00;;;;;;6214240;23;20099;-69
2021/05/14 11:50:42;;;;;;;11.00;8.50;;;16.50;74.70;;;;;;6214794;23;20400;-68
2021/05/14 11:53:11;;;;;;;9.90;7.78;;;16.50;74.30;;;;;;6214207;23;20509;-68
2021/05/14 11:55:39;;;;;;;10.27;7.35;;;16.60;73.90;;;;;;6213768;23;20054;-70
2021/05/14 11:58:05;;;;;;;8.55;7.55;;;16.70;74.80;;;;;;6214507;23;19996;-69
2021/05/14 12:00:32;;;;;;;8.52;7.68;;;16.90;74.90;;;;;;6214059;23;20593;-69
2021/05/14 12:02:59;;;;;;;7.90;7.10;;;17.10;73.60;;;;;;6214960;23;20011;-70
2021/05/14 12:05:25;;;;;;;10.20;8.70;;;17.20;73.80;;;;;;6213382;23;20453;-71
2021/05/14 12:07:52;;;;;;;8.77;7.88;;;17.20;70.60;;;;;;6212338;23;20022;-71
2021/05/14 12:10:19;;;;;;;8.15;7.35;;;17.10;70.50;;;;;;6213449;23;20099;-71
2021/05/14 12:12:47;;;;;;;9.07;6.78;;;17.00;70.90;;;;;;6214567;23;20008;-70
2021/05/14 12:15:20;;;;;;;7.18;6.10;;;17.00;70.80;;;;;;6214040;23;20072;-70
2021/05/14 12:17:49;;;;;;;9.60;6.75;;;17.00;69.00;;;;;;6212835;23;20008;-69
2021/05/14 12:20:29;;;;;;;7.03;6.38;;;17.00;70.10;;;;;;6214644;23;20012;-71
2021/05/14 12:23:00;;;;;;;7.13;6.35;;;16.90;70.50;;;;;;6214088;23;20483;-69
2021/05/14 12:25:28;;;;;;;7.32;5.78;;;16.90;70.80;;;;;;6215068;23;19996;-71
2021/05/14 12:27:56;;;;;;;6.10;5.50;;;16.90;69.60;;;;;;6214878;23;20373;-70
2021/05/14 12:30:22;;;;;;;6.93;4.82;;;16.80;69.50;;;;;;6212736;23;20005;-68
2021/05/14 12:32:56;;;;;;;8.23;5.38;;;16.70;68.90;;;;;;6212686;23;20017;-70